Главная страница
METAR-TAF:

METAR-TAF

Аэропорты :

Ангун

Angoon, Аляска, США

широта: 57-30N, долгота: 134-35W, высота над уровнем моря: 0 м

Текущие метеонаблюдения

Эта сводка был подготовлена 16 минут назад, в 11:56 UTC
Штиль
Температура 10°C
Влажность 93%
Давление 1021 hPa
Видимость: 16.1 км
ясное небо

METAR: PAGN 191156Z AUTO 00000KT 10SM CLR 10/09 A3014 RMK AO2 SLP196 7//// T01000094 10128 20100 56001

Время: 04:12 (12:12 UTC)


TAF: отсутствует

Метеонаблюдения и прогнозы для более 4000 аэропортов (сводки METAR и TAF).

Имеющиеся станции представлены на карте желтыми и красными точками.

Чтобы увидеть название станции, наведите на нее мышь.

Затем щелкните, чтобы увидеть метеонаблюдения и метеопрогнозы.

Управление картой: чтобы увеличить масштаб, щелкните зеленые кнопки с черным крестиком; чтобы уменьшить масштаб, щелкните зеленую кнопку с тире; для просмотра соседних карт щелкайте зеленые стрелки.


METAR-TAF: